createdAt,value
2023-10-20T00:00:14.579Z,97.99
2023-10-20T00:01:14.689Z,97.99
2023-10-20T00:02:14.833Z,98.10
2023-10-20T00:03:14.988Z,98.20
2023-10-20T00:04:15.040Z,98.20
2023-10-20T00:05:15.436Z,98.41
2023-10-20T00:06:15.203Z,98.50
2023-10-20T00:07:15.288Z,98.41
2023-10-20T00:08:15.481Z,98.10
2023-10-20T00:09:15.620Z,97.99
2023-10-20T00:10:15.612Z,97.58
2023-10-20T00:11:15.798Z,97.48
2023-10-20T00:12:15.859Z,97.58
2023-10-20T00:13:15.983Z,97.58
2023-10-20T00:14:16.107Z,97.78
2023-10-20T00:15:17.550Z,97.99
2023-10-20T00:16:16.331Z,97.89
2023-10-20T00:17:16.481Z,97.89
2023-10-20T00:18:16.568Z,98.30
2023-10-20T00:19:16.620Z,97.99
2023-10-20T00:20:16.752Z,98.10
2023-10-20T00:21:16.846Z,98.20
2023-10-20T00:22:16.936Z,98.10
2023-10-20T00:23:17.091Z,97.17
2023-10-20T00:24:17.187Z,97.06
2023-10-20T00:25:17.256Z,97.27
2023-10-20T00:26:18.356Z,97.48
2023-10-20T00:27:17.466Z,97.78
2023-10-20T00:28:17.615Z,98.10
2023-10-20T00:29:17.735Z,98.10
2023-10-20T00:30:17.856Z,98.30
2023-10-20T00:31:17.931Z,98.20
2023-10-20T00:32:18.121Z,98.20
2023-10-20T00:33:18.208Z,97.89
2023-10-20T00:34:18.265Z,97.99
2023-10-20T00:35:18.391Z,98.10
2023-10-20T00:36:18.490Z,98.20
2023-10-20T00:37:18.590Z,98.30
2023-10-20T00:38:18.763Z,98.20
2023-10-20T00:39:18.835Z,98.20
2023-10-20T00:40:18.946Z,97.99
2023-10-20T00:41:19.143Z,98.10
2023-10-20T00:42:19.183Z,98.30
2023-10-20T00:43:19.314Z,98.30
2023-10-20T00:44:19.477Z,97.89
2023-10-20T00:45:19.517Z,98.03
2023-10-20T00:46:19.623Z,98.30
2023-10-20T00:47:19.794Z,98.30
2023-10-20T00:48:19.997Z,98.20
2023-10-20T00:49:19.955Z,98.30
2023-10-20T00:50:20.112Z,98.41
2023-10-20T00:51:20.186Z,98.41
2023-10-20T00:52:20.312Z,98.50
2023-10-20T00:53:20.456Z,98.41
2023-10-20T00:54:20.544Z,98.41
2023-10-20T00:55:20.663Z,98.41
2023-10-20T00:56:20.788Z,98.30
2023-10-20T00:57:20.872Z,98.30
2023-10-20T00:58:21.041Z,98.30
2023-10-20T00:59:21.129Z,98.30
2023-10-20T01:00:21.230Z,98.30
2023-10-20T01:01:21.400Z,97.99
2023-10-20T01:02:21.767Z,97.89
2023-10-20T01:03:21.731Z,97.99
2023-10-20T01:04:21.722Z,98.20
2023-10-20T01:05:21.854Z,97.99
2023-10-20T01:06:21.946Z,97.89
2023-10-20T01:07:22.053Z,98.10
2023-10-20T01:08:22.236Z,98.10
2023-10-20T01:09:22.320Z,98.10
2023-10-20T01:10:22.425Z,98.50
2023-10-20T01:11:22.565Z,98.20
2023-10-20T01:12:22.667Z,98.30
2023-10-20T01:13:22.774Z,98.66
2023-10-20T01:14:22.938Z,98.82
2023-10-20T01:15:22.995Z,98.71
2023-10-20T01:16:23.126Z,98.41
2023-10-20T01:17:23.301Z,98.41
2023-10-20T01:18:23.442Z,98.50
2023-10-20T01:19:23.440Z,98.50
2023-10-20T01:20:23.612Z,98.10
2023-10-20T01:21:23.685Z,98.10
2023-10-20T01:22:23.813Z,98.20
2023-10-20T01:23:23.955Z,98.50
2023-10-20T01:24:24.035Z,98.50
2023-10-20T01:25:24.152Z,98.61
2023-10-20T01:26:24.357Z,98.61
2023-10-20T01:27:24.411Z,98.41
2023-10-20T01:28:24.563Z,98.50
2023-10-20T01:29:24.724Z,98.61
2023-10-20T01:30:24.794Z,98.30
2023-10-20T01:31:24.905Z,98.20
2023-10-20T01:32:25.063Z,98.30
2023-10-20T01:33:25.171Z,98.10
2023-10-20T01:34:25.285Z,98.30
2023-10-20T01:35:25.472Z,98.71
2023-10-20T01:36:25.500Z,99.07
2023-10-20T01:37:25.616Z,99.13
2023-10-20T01:38:25.844Z,99.02
2023-10-20T01:39:25.833Z,98.71
2023-10-20T01:40:25.971Z,98.82
2023-10-20T01:41:26.161Z,99.02
2023-10-20T01:42:26.212Z,99.02
2023-10-20T01:43:26.353Z,98.86
2023-10-20T01:44:26.482Z,98.97
2023-10-20T01:45:26.549Z,99.17
2023-10-20T01:46:26.711Z,99.38
2023-10-20T01:47:26.843Z,99.27
2023-10-20T01:48:26.943Z,99.27
2023-10-20T01:49:27.038Z,99.58
2023-10-20T01:50:27.193Z,99.69
2023-10-20T01:51:27.269Z,99.48
2023-10-20T01:52:27.389Z,99.48
2023-10-20T01:53:27.541Z,99.79
2023-10-20T01:54:27.622Z,99.79
2023-10-20T01:55:27.787Z,99.90
2023-10-20T01:56:27.887Z,99.64
2023-10-20T01:57:27.970Z,99.54
2023-10-20T01:58:28.129Z,99.54
2023-10-20T01:59:28.284Z,99.54
2023-10-20T02:00:28.363Z,99.64
2023-10-20T02:01:28.536Z,99.54
2023-10-20T02:02:28.678Z,99.33
2023-10-20T02:03:28.882Z,99.33
2023-10-20T02:04:28.821Z,99.54
2023-10-20T02:05:28.953Z,99.74
2023-10-20T02:06:29.042Z,99.74
2023-10-20T02:07:29.158Z,99.74
2023-10-20T02:08:29.358Z,99.85
2023-10-20T02:09:29.369Z,99.74
2023-10-20T02:10:29.512Z,99.85
2023-10-20T02:11:29.609Z,99.74
2023-10-20T02:12:29.724Z,99.43
2023-10-20T02:13:29.860Z,99.13
2023-10-20T02:14:29.974Z,99.13
2023-10-20T02:15:30.074Z,99.13
2023-10-20T02:16:30.222Z,99.23
2023-10-20T02:17:30.436Z,99.33
2023-10-20T02:18:30.461Z,99.43
2023-10-20T02:19:30.520Z,99.64
2023-10-20T02:20:30.688Z,99.85
2023-10-20T02:21:30.738Z,99.85
2023-10-20T02:22:30.904Z,99.74
2023-10-20T02:23:31.156Z,99.54
2023-10-20T02:24:31.401Z,99.54
2023-10-20T02:25:31.201Z,99.64
2023-10-20T02:26:31.385Z,99.43
2023-10-20T02:27:31.443Z,99.54
2023-10-20T02:28:31.598Z,99.43
2023-10-20T02:29:31.681Z,99.54
2023-10-20T02:30:31.791Z,99.54
2023-10-20T02:31:31.927Z,99.43
2023-10-20T02:32:32.154Z,99.33
2023-10-20T02:33:32.140Z,99.33
2023-10-20T02:34:32.407Z,99.33
2023-10-20T02:35:32.412Z,99.33
2023-10-20T02:36:32.447Z,99.54
2023-10-20T02:37:32.554Z,99.64
2023-10-20T02:38:32.717Z,99.23
2023-10-20T02:39:32.789Z,99.02
2023-10-20T02:40:32.908Z,99.23
2023-10-20T02:41:33.046Z,99.23
2023-10-20T02:42:33.137Z,99.23
2023-10-20T02:43:33.245Z,98.92
2023-10-20T02:44:33.513Z,98.82
2023-10-20T02:45:33.462Z,98.71
2023-10-20T02:46:33.622Z,99.02
2023-10-20T02:47:33.770Z,99.23
2023-10-20T02:48:33.811Z,99.43
2023-10-20T02:49:33.910Z,99.13
2023-10-20T02:50:34.062Z,99.23
2023-10-20T02:51:34.122Z,99.33
2023-10-20T02:52:34.252Z,98.86
2023-10-20T02:53:34.396Z,98.86
2023-10-20T02:54:34.553Z,98.76
2023-10-20T02:55:34.577Z,98.86
2023-10-20T02:56:34.763Z,98.55
2023-10-20T02:57:34.810Z,98.45
2023-10-20T02:58:34.948Z,98.55
2023-10-20T02:59:35.090Z,98.76
2023-10-20T03:00:35.193Z,98.86
2023-10-20T03:01:35.283Z,98.97
2023-10-20T03:02:35.460Z,99.07
2023-10-20T03:03:35.761Z,98.97
2023-10-20T03:04:35.948Z,99.17
2023-10-20T03:05:35.755Z,99.27
2023-10-20T03:06:35.824Z,98.66
2023-10-20T03:07:35.941Z,98.45
2023-10-20T03:08:36.087Z,98.35
2023-10-20T03:09:36.163Z,98.45
2023-10-20T03:10:36.304Z,98.35
2023-10-20T03:11:36.476Z,98.70
2023-10-20T03:12:36.529Z,98.97
2023-10-20T03:13:36.651Z,98.97
2023-10-20T03:14:36.953Z,98.97
2023-10-20T03:15:36.854Z,98.76
2023-10-20T03:16:37.017Z,98.60
2023-10-20T03:17:37.172Z,98.29
2023-10-20T03:18:37.245Z,98.39
2023-10-20T03:19:37.338Z,98.39
2023-10-20T03:20:37.481Z,98.60
2023-10-20T03:21:37.559Z,98.70
2023-10-20T03:22:37.692Z,98.80
2023-10-20T03:23:37.905Z,99.01
2023-10-20T03:24:37.946Z,99.11
2023-10-20T03:25:38.091Z,99.01
2023-10-20T03:26:38.245Z,98.91
2023-10-20T03:27:38.286Z,98.91
2023-10-20T03:28:38.425Z,99.11
2023-10-20T03:29:38.539Z,99.01
2023-10-20T03:30:38.677Z,98.80
2023-10-20T03:31:38.751Z,98.70
2023-10-20T03:32:38.979Z,98.60
2023-10-20T03:33:38.992Z,98.80
2023-10-20T03:34:39.115Z,98.91
2023-10-20T03:35:39.223Z,98.80
2023-10-20T03:36:39.332Z,98.70
2023-10-20T03:37:39.446Z,98.50
2023-10-20T03:38:39.629Z,98.60
2023-10-20T03:39:39.687Z,98.70
2023-10-20T03:40:39.811Z,98.70
2023-10-20T03:41:39.939Z,98.50
2023-10-20T03:42:40.030Z,98.80
2023-10-20T03:43:40.150Z,98.60
2023-10-20T03:44:40.307Z,98.39
2023-10-20T03:45:40.371Z,98.39
2023-10-20T03:46:40.541Z,98.50
2023-10-20T03:47:40.794Z,98.70
2023-10-20T03:48:40.749Z,98.70
2023-10-20T03:49:40.836Z,99.01
2023-10-20T03:50:41.025Z,98.70
2023-10-20T03:51:41.074Z,98.60
2023-10-20T03:52:41.196Z,98.60
2023-10-20T03:53:41.343Z,98.50
2023-10-20T03:54:41.463Z,98.60
2023-10-20T03:55:41.541Z,98.39
2023-10-20T03:56:41.710Z,98.19
2023-10-20T03:57:41.789Z,98.08
2023-10-20T03:58:41.933Z,97.88
2023-10-20T03:59:42.074Z,97.98
2023-10-20T04:00:42.167Z,98.08
2023-10-20T04:01:42.316Z,98.39
2023-10-20T04:02:42.546Z,98.29
2023-10-20T04:03:42.600Z,98.19
2023-10-20T04:04:42.638Z,97.98
2023-10-20T04:05:42.792Z,98.29
2023-10-20T04:06:42.886Z,98.60
2023-10-20T04:07:43.044Z,98.91
2023-10-20T04:08:43.160Z,99.01
2023-10-20T04:09:43.223Z,98.70
2023-10-20T04:10:43.363Z,98.50
2023-10-20T04:11:43.497Z,98.08
2023-10-20T04:12:43.615Z,98.29
2023-10-20T04:13:43.788Z,98.39
2023-10-20T04:14:43.958Z,97.98
2023-10-20T04:15:43.951Z,97.98
2023-10-20T04:16:44.165Z,98.29
2023-10-20T04:17:44.316Z,98.50
2023-10-20T04:18:44.347Z,98.29
2023-10-20T04:19:44.444Z,97.67
2023-10-20T04:20:44.631Z,97.47
2023-10-20T04:21:44.698Z,97.47
2023-10-20T04:22:44.836Z,97.36
2023-10-20T04:23:45.559Z,97.67
2023-10-20T04:24:45.058Z,97.56
2023-10-20T04:25:45.187Z,97.67
2023-10-20T04:26:45.423Z,97.67
2023-10-20T04:27:45.430Z,97.41
2023-10-20T04:28:45.590Z,97.36
2023-10-20T04:29:45.730Z,97.26
2023-10-20T04:30:45.812Z,97.51
2023-10-20T04:31:45.965Z,97.72
2023-10-20T04:32:46.124Z,97.61
2023-10-20T04:33:46.204Z,97.92
2023-10-20T04:34:46.306Z,98.13
2023-10-20T04:35:46.479Z,98.02
2023-10-20T04:36:46.559Z,97.61
2023-10-20T04:37:46.677Z,97.61
2023-10-20T04:38:46.839Z,97.41
2023-10-20T04:39:46.912Z,97.51
2023-10-20T04:40:47.052Z,97.61
2023-10-20T04:41:47.163Z,97.72
2023-10-20T04:42:47.308Z,97.82
2023-10-20T04:43:47.439Z,97.61
2023-10-20T04:44:47.588Z,97.72
2023-10-20T04:45:47.694Z,97.61
2023-10-20T04:46:47.838Z,97.92
2023-10-20T04:47:48.051Z,97.72
2023-10-20T04:48:48.104Z,97.61
2023-10-20T04:49:48.206Z,97.72
2023-10-20T04:50:48.396Z,97.72
2023-10-20T04:51:48.469Z,97.72
2023-10-20T04:52:48.642Z,97.82
2023-10-20T04:53:48.762Z,97.72
2023-10-20T04:54:48.864Z,97.92
2023-10-20T04:55:48.997Z,98.02
2023-10-20T04:56:49.174Z,97.92
2023-10-20T04:57:49.277Z,98.23
2023-10-20T04:58:49.438Z,98.23
2023-10-20T04:59:49.514Z,97.72
2023-10-20T05:00:49.647Z,97.51
2023-10-20T05:01:49.834Z,97.51
2023-10-20T05:02:50.018Z,97.61
2023-10-20T05:03:50.112Z,97.72
2023-10-20T05:04:50.152Z,97.72
2023-10-20T05:05:50.296Z,97.82
2023-10-20T05:06:50.456Z,97.61
2023-10-20T05:07:50.582Z,97.51
2023-10-20T05:08:50.702Z,97.55
2023-10-20T05:09:50.796Z,97.66
2023-10-20T05:10:50.963Z,97.86
2023-10-20T05:11:51.057Z,98.18
2023-10-20T05:12:51.219Z,98.07
2023-10-20T05:13:51.365Z,97.72
2023-10-20T05:14:51.520Z,97.66
2023-10-20T05:15:51.637Z,97.72
2023-10-20T05:16:51.712Z,97.92
2023-10-20T05:17:51.987Z,97.55
2023-10-20T05:18:51.991Z,97.86
2023-10-20T05:19:52.111Z,97.66
2023-10-20T05:20:52.260Z,97.86
2023-10-20T05:21:52.373Z,97.97
2023-10-20T05:22:52.523Z,97.86
2023-10-20T05:23:52.676Z,97.97
2023-10-20T05:24:52.779Z,98.18
2023-10-20T05:25:52.909Z,98.38
2023-10-20T05:26:53.043Z,97.97
2023-10-20T05:27:53.149Z,97.76
2023-10-20T05:28:53.344Z,97.86
2023-10-20T05:29:53.426Z,97.86
2023-10-20T05:30:53.551Z,98.07
2023-10-20T05:31:53.725Z,98.18
2023-10-20T05:32:53.963Z,97.97
2023-10-20T05:33:53.966Z,97.97
2023-10-20T05:34:54.090Z,97.76
2023-10-20T05:35:54.246Z,97.86
2023-10-20T05:36:54.353Z,98.28
2023-10-20T05:37:54.474Z,98.38
2023-10-20T05:38:54.621Z,98.18
2023-10-20T05:39:54.731Z,98.28
2023-10-20T05:40:54.860Z,98.07
2023-10-20T05:41:54.995Z,98.18
2023-10-20T05:42:55.128Z,98.18
2023-10-20T05:43:55.311Z,98.38
2023-10-20T05:44:55.719Z,98.28
2023-10-20T05:45:55.607Z,98.58
2023-10-20T05:46:55.644Z,98.58
2023-10-20T05:47:55.858Z,98.38
2023-10-20T05:48:56.044Z,98.18
2023-10-20T05:49:56.047Z,98.28
2023-10-20T05:50:56.175Z,98.43
2023-10-20T05:51:56.313Z,98.43
2023-10-20T05:52:56.434Z,98.84
2023-10-20T05:53:56.589Z,99.05
2023-10-20T05:54:56.694Z,98.74
2023-10-20T05:55:56.796Z,99.05
2023-10-20T05:56:56.951Z,99.05
2023-10-20T05:57:57.060Z,98.94
2023-10-20T05:58:57.220Z,98.84
2023-10-20T05:59:57.322Z,98.74
2023-10-20T06:01:03.014Z,98.94
2023-10-20T06:01:57.644Z,99.35
2023-10-20T06:02:57.811Z,99.46
2023-10-20T06:03:57.970Z,99.35
2023-10-20T06:04:57.993Z,99.35
2023-10-20T06:05:58.122Z,98.94
2023-10-20T06:06:58.247Z,99.05
2023-10-20T06:07:58.362Z,99.15
2023-10-20T06:08:58.534Z,98.84
2023-10-20T06:09:58.629Z,98.84
2023-10-20T06:10:58.782Z,98.63
2023-10-20T06:11:58.899Z,98.74
2023-10-20T06:12:59.033Z,98.63
2023-10-20T06:13:59.168Z,98.32
2023-10-20T06:14:59.291Z,98.43
2023-10-20T06:15:59.417Z,98.43
2023-10-20T06:16:59.567Z,98.74
2023-10-20T06:17:59.733Z,98.84
2023-10-20T06:18:59.851Z,98.74
2023-10-20T06:19:59.929Z,98.84
2023-10-20T06:21:00.085Z,99.05
2023-10-20T06:22:00.192Z,98.53
2023-10-20T06:23:00.343Z,98.53
2023-10-20T06:24:00.485Z,98.22
2023-10-20T06:25:00.602Z,98.11
2023-10-20T06:26:00.741Z,98.11
2023-10-20T06:27:00.865Z,98.22
2023-10-20T06:28:00.976Z,98.43
2023-10-20T06:29:01.136Z,98.63
2023-10-20T06:30:01.240Z,98.43
2023-10-20T06:31:01.355Z,98.32
2023-10-20T06:32:01.528Z,98.49
2023-10-20T06:33:01.787Z,98.32
2023-10-20T06:34:02.029Z,98.28
2023-10-20T06:35:01.907Z,98.38
2023-10-20T06:36:02.027Z,98.38
2023-10-20T06:37:02.162Z,98.38
2023-10-20T06:38:02.281Z,98.07
2023-10-20T06:39:02.438Z,97.71
2023-10-20T06:40:02.529Z,97.66
2023-10-20T06:41:02.689Z,97.81
2023-10-20T06:42:02.824Z,98.07
2023-10-20T06:43:02.934Z,98.11
2023-10-20T06:44:03.074Z,98.22
2023-10-20T06:45:03.200Z,97.91
2023-10-20T06:46:03.347Z,98.01
2023-10-20T06:47:03.458Z,97.91
2023-10-20T06:48:03.604Z,98.01
2023-10-20T06:49:03.729Z,98.32
2023-10-20T06:50:03.832Z,98.22
2023-10-20T06:51:03.969Z,98.22
2023-10-20T06:52:04.110Z,98.32
2023-10-20T06:53:04.212Z,98.07
2023-10-20T06:54:04.337Z,98.01
2023-10-20T06:55:36.349Z,97.81
2023-10-20T06:56:13.336Z,97.60
2023-10-20T06:57:04.786Z,97.81
2023-10-20T06:58:04.853Z,98.11
2023-10-20T06:59:05.006Z,98.22
2023-10-20T07:00:05.183Z,98.11
2023-10-20T07:01:05.333Z,98.22
2023-10-20T07:02:05.390Z,98.32
2023-10-20T07:03:05.585Z,98.11
2023-10-20T07:04:05.718Z,98.32
2023-10-20T07:05:05.787Z,98.22
2023-10-20T07:06:05.885Z,98.32
2023-10-20T07:07:06.050Z,98.53
2023-10-20T07:08:06.167Z,98.32
2023-10-20T07:09:06.314Z,98.32
2023-10-20T07:10:06.432Z,98.43
2023-10-20T07:11:06.563Z,98.74
2023-10-20T07:12:07.342Z,98.53
2023-10-20T07:13:06.829Z,98.32
2023-10-20T07:14:06.953Z,98.63
2023-10-20T07:15:07.081Z,98.53
2023-10-20T07:16:07.323Z,98.43
2023-10-20T07:17:07.336Z,98.32
2023-10-20T07:18:07.536Z,98.63
2023-10-20T07:19:07.631Z,98.22
2023-10-20T07:20:07.943Z,98.32
2023-10-20T07:21:07.849Z,98.43
2023-10-20T07:22:07.988Z,98.53
2023-10-20T07:23:08.166Z,98.43
2023-10-20T07:24:08.260Z,98.43
2023-10-20T07:25:08.373Z,98.53
2023-10-20T07:26:08.590Z,98.74
2023-10-20T07:27:08.636Z,98.84
2023-10-20T07:28:08.771Z,98.94
2023-10-20T07:29:08.968Z,99.05
2023-10-20T07:30:09.053Z,98.22
2023-10-20T07:31:09.202Z,98.32
2023-10-20T07:32:09.330Z,98.53
2023-10-20T07:33:09.513Z,98.84
2023-10-20T07:34:09.600Z,98.53
2023-10-20T07:35:09.775Z,98.43
2023-10-20T07:36:09.845Z,98.22
2023-10-20T07:37:09.985Z,98.43
2023-10-20T07:38:10.130Z,98.84
2023-10-20T07:39:10.279Z,99.25
2023-10-20T07:40:10.392Z,98.63
2023-10-20T07:41:10.566Z,98.53
2023-10-20T07:42:10.643Z,98.84
2023-10-20T07:43:10.766Z,98.53
2023-10-20T07:44:10.985Z,98.63
2023-10-20T07:45:11.044Z,98.53
2023-10-20T07:46:11.213Z,98.11
2023-10-20T07:47:11.368Z,98.32
2023-10-20T07:48:11.539Z,98.53
2023-10-20T07:49:11.588Z,97.91
2023-10-20T07:50:11.750Z,98.11
2023-10-20T07:51:11.893Z,98.53
2023-10-20T07:52:11.987Z,98.32
2023-10-20T07:53:12.157Z,97.81
2023-10-20T07:54:12.235Z,97.71
2023-10-20T07:55:12.348Z,97.71
2023-10-20T07:56:12.490Z,97.60
2023-10-20T07:57:13.901Z,97.50
2023-10-20T07:58:12.731Z,97.60
2023-10-20T07:59:12.914Z,97.19
2023-10-20T08:00:12.999Z,97.50
2023-10-20T08:01:13.176Z,97.91
2023-10-20T08:02:13.311Z,97.71
2023-10-20T08:03:13.593Z,98.01
2023-10-20T08:04:13.798Z,97.71
2023-10-20T08:05:14.078Z,97.29
2023-10-20T08:06:14.193Z,97.29
2023-10-20T08:07:13.996Z,97.50
2023-10-20T08:08:14.120Z,97.91
2023-10-20T08:09:14.230Z,97.81
2023-10-20T08:10:14.330Z,97.08
2023-10-20T08:11:14.530Z,97.19
2023-10-20T08:12:14.617Z,97.33
2023-10-20T08:13:14.737Z,97.33
2023-10-20T08:14:14.894Z,97.54
2023-10-20T08:15:15.106Z,97.33
2023-10-20T08:16:15.197Z,97.23
2023-10-20T08:17:15.281Z,97.23
2023-10-20T08:18:15.430Z,97.44
2023-10-20T08:19:15.564Z,97.23
2023-10-20T08:20:15.700Z,97.23
2023-10-20T08:21:15.827Z,97.54
2023-10-20T08:22:15.950Z,97.96
2023-10-20T08:23:16.123Z,97.44
2023-10-20T08:24:16.227Z,97.02
2023-10-20T08:25:16.368Z,97.23
2023-10-20T08:26:16.481Z,97.54
2023-10-20T08:27:16.612Z,97.64
2023-10-20T08:28:16.729Z,97.33
2023-10-20T08:29:16.909Z,96.92
2023-10-20T08:30:16.992Z,96.82
2023-10-20T08:31:17.190Z,97.02
2023-10-20T08:32:17.278Z,97.33
2023-10-20T08:33:17.451Z,97.13
2023-10-20T08:34:17.562Z,97.44
2023-10-20T08:35:17.736Z,97.54
2023-10-20T08:36:17.834Z,97.33
2023-10-20T08:37:17.964Z,97.33
2023-10-20T08:38:18.100Z,97.54
2023-10-20T08:39:18.264Z,97.44
2023-10-20T08:40:18.391Z,97.64
2023-10-20T08:41:18.574Z,97.85
2023-10-20T08:42:18.645Z,98.06
2023-10-20T08:43:18.795Z,97.96
2023-10-20T08:44:18.977Z,97.64
2023-10-20T08:45:19.053Z,97.54
2023-10-20T08:46:19.432Z,97.54
2023-10-20T08:47:19.365Z,97.44
2023-10-20T08:48:19.538Z,97.44
2023-10-20T08:49:19.627Z,97.33
2023-10-20T08:50:19.755Z,97.33
2023-10-20T08:51:19.885Z,97.23
2023-10-20T08:52:20.025Z,97.44
2023-10-20T08:53:20.422Z,97.44
2023-10-20T08:56:20.614Z,98.06
2023-10-20T08:57:20.719Z,97.54
2023-10-20T08:58:20.883Z,97.54
2023-10-20T08:59:21.019Z,97.44
2023-10-20T09:00:21.120Z,97.23
2023-10-20T09:01:21.295Z,97.54
2023-10-20T09:02:21.433Z,97.75
2023-10-20T09:03:21.617Z,97.96
2023-10-20T09:04:21.703Z,98.06
2023-10-20T09:05:21.812Z,98.27
2023-10-20T09:06:21.932Z,97.85
2023-10-20T09:07:22.065Z,97.44
2023-10-20T09:08:22.225Z,97.33
2023-10-20T09:09:22.367Z,96.92
2023-10-20T09:10:22.477Z,96.92
2023-10-20T09:11:22.686Z,97.33
2023-10-20T09:12:23.643Z,97.54
2023-10-20T09:13:22.883Z,97.64
2023-10-20T09:14:23.064Z,97.96
2023-10-20T09:15:23.187Z,98.27
2023-10-20T09:16:23.295Z,98.37
2023-10-20T09:17:23.530Z,98.06
2023-10-20T09:18:23.588Z,98.06
2023-10-20T09:19:23.707Z,97.75
2023-10-20T09:20:23.839Z,97.96
2023-10-20T09:21:23.998Z,98.27
2023-10-20T09:22:24.104Z,97.75
2023-10-20T09:23:24.266Z,97.64
2023-10-20T09:24:24.403Z,98.10
2023-10-20T09:25:24.590Z,98.06
2023-10-20T09:26:24.688Z,97.96
2023-10-20T09:27:24.789Z,97.75
2023-10-20T09:28:24.917Z,97.64
2023-10-20T09:29:25.135Z,97.96
2023-10-20T09:30:25.198Z,97.89
2023-10-20T09:31:25.399Z,97.69
2023-10-20T09:32:25.767Z,98.00
2023-10-20T09:33:25.680Z,98.00
2023-10-20T09:34:25.815Z,98.16
2023-10-20T09:35:25.956Z,98.52
2023-10-20T09:36:26.039Z,98.52
2023-10-20T09:37:26.181Z,98.62
2023-10-20T09:38:26.322Z,98.21
2023-10-20T09:39:26.774Z,98.21
2023-10-20T09:40:26.732Z,98.37
2023-10-20T09:41:26.732Z,98.16
2023-10-20T09:42:26.857Z,98.41
2023-10-20T09:43:27.116Z,98.10
2023-10-20T09:44:27.234Z,98.21
2023-10-20T09:45:27.267Z,98.10
2023-10-20T09:46:27.433Z,98.10
2023-10-20T09:47:27.631Z,98.21
2023-10-20T09:48:27.794Z,98.31
2023-10-20T09:49:27.964Z,98.37
2023-10-20T09:50:28.035Z,98.06
2023-10-20T09:51:28.135Z,97.79
2023-10-20T09:52:30.241Z,97.96
2023-10-20T09:53:28.431Z,98.21
2023-10-20T09:54:28.578Z,98.27
2023-10-20T09:55:28.686Z,98.00
2023-10-20T09:56:28.896Z,97.59
2023-10-20T09:57:28.986Z,97.89
2023-10-20T09:58:29.123Z,97.79
2023-10-20T09:59:32.231Z,98.00
2023-10-20T10:00:29.432Z,98.10
2023-10-20T10:01:29.552Z,98.00
2023-10-20T10:02:30.162Z,97.89
2023-10-20T10:03:30.030Z,97.89
2023-10-20T10:04:30.031Z,97.69
2023-10-20T10:05:30.121Z,97.79
2023-10-20T10:06:30.239Z,98.21
2023-10-20T10:07:30.389Z,98.37
2023-10-20T10:08:30.531Z,97.96
2023-10-20T10:09:30.677Z,97.69
2023-10-20T10:10:30.779Z,97.54
2023-10-20T10:11:31.009Z,97.49
2023-10-20T10:12:31.082Z,97.49
2023-10-20T10:13:31.214Z,97.59
2023-10-20T10:14:31.446Z,97.89
2023-10-20T10:15:31.489Z,97.28
2023-10-20T10:16:31.593Z,97.17
2023-10-20T10:17:31.840Z,97.17
2023-10-20T10:18:31.949Z,97.28
2023-10-20T10:19:32.022Z,97.59
2023-10-20T10:20:32.215Z,97.49
2023-10-20T10:21:32.280Z,97.79
2023-10-20T10:22:32.442Z,97.69
2023-10-20T10:23:32.559Z,97.49
2023-10-20T10:24:33.044Z,97.79
2023-10-20T10:25:32.831Z,97.89
2023-10-20T10:26:32.989Z,97.07
2023-10-20T10:27:33.128Z,97.17
2023-10-20T10:28:33.219Z,97.38
2023-10-20T10:29:34.660Z,97.28
2023-10-20T10:30:33.471Z,97.28
2023-10-20T10:31:33.658Z,96.86
2023-10-20T10:32:34.360Z,97.49
2023-10-20T10:33:33.983Z,96.86
2023-10-20T10:34:34.122Z,96.86
2023-10-20T10:35:34.227Z,97.07
2023-10-20T10:36:34.277Z,97.17
2023-10-20T10:37:34.658Z,97.38
2023-10-20T10:38:34.551Z,97.59
2023-10-20T10:39:35.051Z,97.07
2023-10-20T10:40:34.770Z,96.97
2023-10-20T10:41:35.645Z,97.38
2023-10-20T10:43:35.165Z,97.59
2023-10-20T10:44:35.520Z,97.49
2023-10-20T10:45:35.574Z,97.38
2023-10-20T10:46:35.604Z,97.49
2023-10-20T10:47:35.753Z,97.49
2023-10-20T10:48:35.873Z,97.23
2023-10-20T10:49:36.011Z,96.72
2023-10-20T10:50:36.135Z,96.82
2023-10-20T10:51:36.232Z,97.28
2023-10-20T10:52:36.352Z,97.75
2023-10-20T10:53:36.518Z,97.64
2023-10-20T10:54:36.775Z,96.86
2023-10-20T10:55:36.758Z,96.97
2023-10-20T10:56:36.899Z,97.07
2023-10-20T10:57:37.027Z,96.86
2023-10-20T10:58:37.150Z,96.86
2023-10-20T10:59:37.391Z,97.07
2023-10-20T11:00:37.459Z,97.49
2023-10-20T11:01:37.585Z,97.49
2023-10-20T11:02:37.776Z,97.44
2023-10-20T11:03:37.914Z,97.28
2023-10-20T11:04:38.233Z,97.17
2023-10-20T11:05:38.139Z,97.69
2023-10-20T11:06:38.243Z,97.59
2023-10-20T11:07:38.384Z,97.49
2023-10-20T11:08:38.540Z,97.17
2023-10-20T11:09:38.657Z,97.49
2023-10-20T11:10:38.802Z,97.79
2023-10-20T11:11:38.969Z,97.59
2023-10-20T11:12:39.039Z,97.59
2023-10-20T11:13:39.179Z,97.28
2023-10-20T11:14:39.352Z,97.69
2023-10-20T11:15:39.448Z,98.21
2023-10-20T11:16:39.715Z,98.10
2023-10-20T11:17:39.785Z,98.10
2023-10-20T11:18:39.855Z,97.89
2023-10-20T11:19:39.996Z,97.59
2023-10-20T11:20:40.170Z,97.69
2023-10-20T11:21:40.258Z,98.21
2023-10-20T11:22:40.418Z,98.31
2023-10-20T11:23:40.550Z,98.31
2023-10-20T11:24:40.661Z,98.31
2023-10-20T11:25:40.835Z,98.57
2023-10-20T11:26:40.971Z,98.10
2023-10-20T11:27:41.044Z,98.16
2023-10-20T11:28:41.180Z,97.96
2023-10-20T11:29:57.508Z,98.00
2023-10-20T11:30:41.466Z,98.06
2023-10-20T11:31:41.553Z,98.16
2023-10-20T11:32:42.754Z,98.57
2023-10-20T11:33:43.845Z,98.57
2023-10-20T11:34:41.960Z,98.47
2023-10-20T11:35:42.136Z,98.27
2023-10-20T11:36:42.184Z,98.06
2023-10-20T11:37:42.320Z,97.96
2023-10-20T11:38:42.486Z,98.16
2023-10-20T11:39:42.607Z,97.96
2023-10-20T11:40:42.731Z,97.54
2023-10-20T11:41:42.891Z,97.13
2023-10-20T11:42:42.962Z,97.33
2023-10-20T11:43:43.105Z,97.75
2023-10-20T11:44:43.257Z,98.27
2023-10-20T11:45:43.367Z,98.06
2023-10-20T11:46:43.525Z,97.96
2023-10-20T11:47:43.731Z,97.85
2023-10-20T11:48:43.790Z,97.96
2023-10-20T11:49:43.899Z,97.33
2023-10-20T11:50:44.045Z,97.54
2023-10-20T11:51:44.137Z,97.85
2023-10-20T11:52:44.274Z,98.16
2023-10-20T11:53:44.420Z,97.75
2023-10-20T11:54:44.534Z,97.54
2023-10-20T11:55:44.661Z,97.85
2023-10-20T11:56:44.798Z,97.75
2023-10-20T11:57:44.919Z,97.64
2023-10-20T11:58:45.045Z,97.23
2023-10-20T11:59:45.225Z,97.33
2023-10-20T12:00:45.282Z,97.54
2023-10-20T12:01:45.449Z,97.75
2023-10-20T12:02:45.587Z,97.64
2023-10-20T12:03:45.784Z,97.85
2023-10-20T12:04:45.867Z,97.85
2023-10-20T12:05:45.991Z,98.16
2023-10-20T12:06:46.062Z,97.75
2023-10-20T12:07:46.155Z,97.54
2023-10-20T12:08:46.308Z,97.85
2023-10-20T12:09:46.445Z,97.75
2023-10-20T12:10:46.544Z,97.54
2023-10-20T12:11:46.810Z,97.75
2023-10-20T12:12:46.822Z,98.06
2023-10-20T12:13:46.958Z,97.96
2023-10-20T12:14:47.114Z,97.60
2023-10-20T12:15:47.217Z,97.54
2023-10-20T12:16:47.375Z,97.60
2023-10-20T12:17:47.581Z,97.33
2023-10-20T12:18:47.590Z,97.33
2023-10-20T12:19:50.120Z,97.33
2023-10-20T12:20:47.947Z,97.02
2023-10-20T12:21:48.000Z,97.33
2023-10-20T12:22:48.107Z,97.23
2023-10-20T12:23:48.300Z,97.54
2023-10-20T12:24:48.399Z,97.75
2023-10-20T12:25:48.531Z,98.06
2023-10-20T12:26:48.692Z,98.06
2023-10-20T12:27:48.773Z,98.57
2023-10-20T12:28:48.902Z,97.54
2023-10-20T12:29:49.099Z,97.23
2023-10-20T12:30:49.226Z,97.13
2023-10-20T12:31:49.360Z,96.82
2023-10-20T12:32:51.652Z,96.92
2023-10-20T12:33:49.624Z,97.33
2023-10-20T12:34:49.686Z,96.61
2023-10-20T12:35:49.872Z,97.02
2023-10-20T12:36:49.912Z,97.23
2023-10-20T12:37:50.059Z,97.64
2023-10-20T12:38:50.238Z,96.61
2023-10-20T12:39:50.341Z,96.82
2023-10-20T12:40:50.462Z,97.02
2023-10-20T12:41:50.602Z,97.13
2023-10-20T12:42:50.726Z,97.54
2023-10-20T12:43:50.838Z,98.16
2023-10-20T12:44:51.033Z,98.16
2023-10-20T12:45:51.109Z,97.75
2023-10-20T12:46:51.237Z,97.75
2023-10-20T12:47:51.434Z,97.85
2023-10-20T12:48:51.579Z,97.44
2023-10-20T12:49:51.698Z,97.75
2023-10-20T12:50:51.804Z,97.54
2023-10-20T12:51:51.892Z,97.64
2023-10-20T12:52:52.018Z,97.33
2023-10-20T12:53:52.217Z,97.02
2023-10-20T12:54:52.306Z,97.75
2023-10-20T12:55:52.404Z,98.06
2023-10-20T12:56:52.563Z,97.54